createdAt,value
2019-02-15T00:01:57.433Z,33.80
2019-02-15T00:04:24.088Z,35.85
2019-02-15T00:06:50.628Z,32.58
2019-02-15T00:09:17.199Z,32.20
2019-02-15T00:11:43.865Z,29.87
2019-02-15T00:14:10.392Z,30.25
2019-02-15T00:16:36.941Z,31.37
2019-02-15T00:19:14.434Z,32.00
2019-02-15T00:21:41.107Z,27.70
2019-02-15T00:24:07.662Z,22.15
2019-02-15T00:26:34.232Z,24.85
2019-02-15T00:29:00.770Z,28.45
2019-02-15T00:31:27.328Z,27.85
2019-02-15T00:33:53.861Z,29.20
2019-02-15T00:36:20.440Z,30.50
2019-02-15T00:38:47.005Z,28.25
2019-02-15T00:41:13.554Z,26.62
2019-02-15T00:43:40.207Z,29.65
2019-02-15T00:46:11.675Z,30.40
2019-02-15T00:48:38.307Z,29.40
2019-02-15T00:51:06.760Z,30.85
2019-02-15T00:53:35.253Z,32.98
2019-02-15T00:56:20.498Z,33.70
2019-02-15T00:58:51.963Z,28.62
2019-02-15T01:01:23.365Z,31.70
2019-02-15T01:03:54.844Z,33.92
2019-02-15T01:06:38.301Z,33.15
2019-02-15T01:09:09.782Z,29.27
2019-02-15T01:11:38.358Z,29.65
2019-02-15T01:14:04.908Z,29.85
2019-02-15T01:16:31.457Z,28.85
2019-02-15T01:18:58.022Z,28.50
2019-02-15T01:21:24.557Z,29.77
2019-02-15T01:23:51.252Z,30.62
2019-02-15T01:26:19.720Z,31.33
2019-02-15T01:28:54.044Z,27.22
2019-02-15T01:31:34.733Z,27.17
2019-02-15T01:34:20.022Z,29.57
2019-02-15T01:36:54.542Z,33.02
2019-02-15T01:39:25.621Z,30.72
2019-02-15T01:42:10.780Z,28.10
2019-02-15T01:44:39.232Z,20.60
2019-02-15T01:47:07.675Z,25.10
2019-02-15T01:49:34.229Z,35.58
2019-02-15T01:52:00.750Z,41.53
2019-02-15T01:54:27.326Z,39.80
2019-02-15T01:56:53.865Z,35.40
2019-02-15T01:59:20.399Z,33.98
2019-02-15T02:01:47.049Z,35.25
2019-02-15T02:04:13.613Z,36.53
2019-02-15T02:06:40.165Z,33.65
2019-02-15T02:09:06.739Z,31.30
2019-02-15T02:11:35.409Z,31.75
2019-02-15T02:14:02.227Z,24.82
2019-02-15T02:16:28.798Z,22.85
2019-02-15T02:18:55.343Z,23.20
2019-02-15T02:21:21.874Z,22.75
2019-02-15T02:23:48.406Z,23.45
2019-02-15T02:26:14.972Z,33.33
2019-02-15T02:28:41.602Z,29.82
2019-02-15T02:31:08.129Z,27.25
2019-02-15T02:33:34.680Z,29.57
2019-02-15T02:36:01.216Z,29.92
2019-02-15T02:38:27.844Z,30.43
2019-02-15T02:40:54.510Z,27.82
2019-02-15T02:43:21.265Z,26.57
2019-02-15T02:45:47.905Z,29.15
2019-02-15T02:48:14.461Z,31.90
2019-02-15T02:50:40.998Z,30.08
2019-02-15T02:53:07.526Z,28.35
2019-02-15T02:55:34.072Z,27.30
2019-02-15T02:58:00.648Z,25.10
2019-02-15T03:00:33.600Z,26.23
2019-02-15T03:02:56.658Z,24.35
2019-02-15T03:05:23.476Z,25.97
2019-02-15T03:07:50.023Z,25.43
2019-02-15T03:10:17.158Z,28.35
2019-02-15T03:12:43.700Z,28.23
2019-02-15T03:15:10.276Z,32.78
2019-02-15T03:17:37.133Z,34.27
2019-02-15T03:20:05.567Z,33.83
2019-02-15T03:22:32.126Z,42.00
2019-02-15T03:24:58.669Z,41.63
2019-02-15T03:27:25.208Z,36.25
2019-02-15T03:29:52.797Z,32.83
2019-02-15T03:32:19.337Z,29.65
2019-02-15T03:34:45.897Z,28.62
2019-02-15T03:37:30.875Z,31.25
2019-02-15T03:39:59.351Z,32.25
2019-02-15T03:42:26.385Z,32.20
2019-02-15T03:44:52.959Z,29.63
2019-02-15T03:47:21.386Z,32.70
2019-02-15T03:49:49.035Z,30.82
2019-02-15T03:52:15.582Z,33.53
2019-02-15T03:54:42.148Z,28.55
2019-02-15T03:57:08.688Z,30.77
2019-02-15T03:59:35.237Z,32.40
2019-02-15T04:02:01.809Z,34.60
2019-02-15T04:04:28.348Z,30.70
2019-02-15T04:06:54.894Z,29.80
2019-02-15T04:09:21.431Z,29.52
2019-02-15T04:11:47.996Z,28.87
2019-02-15T04:14:14.541Z,32.42
2019-02-15T04:16:41.502Z,26.97
2019-02-15T04:19:08.072Z,29.40
2019-02-15T04:21:34.634Z,30.72
2019-02-15T04:24:02.170Z,31.75
2019-02-15T04:26:29.816Z,39.03
2019-02-15T04:28:56.473Z,36.77
2019-02-15T04:31:22.995Z,32.35
2019-02-15T04:33:49.617Z,31.90
2019-02-15T04:36:16.180Z,28.27
2019-02-15T04:38:42.713Z,27.17
2019-02-15T04:41:09.265Z,26.70
2019-02-15T04:43:35.824Z,26.10
2019-02-15T04:46:02.361Z,27.00
2019-02-15T04:48:28.901Z,26.33
2019-02-15T04:50:55.464Z,25.65
2019-02-15T04:53:22.017Z,24.45
2019-02-15T04:55:48.582Z,24.18
2019-02-15T04:58:15.144Z,24.67
2019-02-15T05:00:41.671Z,24.37
2019-02-15T05:03:08.220Z,26.55
2019-02-15T05:05:34.789Z,26.57
2019-02-15T05:08:01.318Z,29.20
2019-02-15T05:10:27.859Z,29.40
2019-02-15T05:12:54.440Z,29.87
2019-02-15T05:15:20.961Z,32.03
2019-02-15T05:17:47.526Z,31.50
2019-02-15T05:20:14.073Z,27.95
2019-02-15T05:22:40.603Z,27.58
2019-02-15T05:25:07.115Z,27.17
2019-02-15T05:27:33.723Z,29.10
2019-02-15T05:30:00.392Z,27.58
2019-02-15T05:32:26.922Z,29.60
2019-02-15T05:34:53.466Z,26.82
2019-02-15T05:37:20.048Z,25.52
2019-02-15T05:39:46.613Z,27.73
2019-02-15T05:42:13.167Z,23.80
2019-02-15T05:44:39.705Z,28.60
2019-02-15T05:47:06.255Z,30.35
2019-02-15T05:49:32.858Z,31.15
2019-02-15T05:51:59.423Z,32.78
2019-02-15T05:54:25.999Z,30.70
2019-02-15T05:56:52.556Z,31.05
2019-02-15T05:59:19.109Z,30.55
2019-02-15T06:01:45.669Z,35.10
2019-02-15T06:04:12.211Z,35.48
2019-02-15T06:06:38.741Z,34.35
2019-02-15T06:09:05.330Z,35.68
2019-02-15T06:11:31.871Z,34.60
2019-02-15T06:14:14.057Z,37.93
2019-02-15T06:16:40.604Z,40.33
2019-02-15T06:19:07.208Z,40.85
2019-02-15T06:21:40.460Z,44.75
2019-02-15T06:24:07.002Z,51.15
2019-02-15T06:26:33.840Z,54.23
2019-02-15T06:29:00.372Z,39.55
2019-02-15T06:31:26.967Z,33.55
2019-02-15T06:33:53.500Z,33.88
2019-02-15T06:36:20.061Z,33.83
2019-02-15T06:38:46.620Z,32.70
2019-02-15T06:41:13.219Z,36.50
2019-02-15T06:43:39.809Z,41.10
2019-02-15T06:46:06.355Z,42.15
2019-02-15T06:48:32.891Z,43.40
2019-02-15T06:50:59.445Z,41.53
2019-02-15T06:53:25.991Z,40.20
2019-02-15T06:55:52.562Z,37.40
2019-02-15T06:58:19.132Z,39.88
2019-02-15T07:01:04.145Z,42.25
2019-02-15T07:03:32.586Z,42.20
2019-02-15T07:06:00.232Z,44.58
2019-02-15T07:08:27.880Z,45.83
2019-02-15T07:10:55.513Z,50.75
2019-02-15T07:13:22.102Z,49.40
2019-02-15T07:15:48.648Z,49.63
2019-02-15T07:18:15.190Z,46.05
2019-02-15T07:20:41.822Z,46.30
2019-02-15T07:23:09.492Z,46.37
2019-02-15T07:25:36.118Z,46.65
2019-02-15T07:28:02.707Z,50.10
2019-02-15T07:30:29.240Z,61.13
2019-02-15T07:32:55.776Z,67.67
2019-02-15T07:35:22.330Z,69.82
2019-02-15T07:37:48.904Z,53.70
2019-02-15T07:40:15.425Z,51.40
2019-02-15T07:42:41.972Z,50.75
2019-02-15T07:45:09.579Z,52.40
2019-02-15T07:47:36.144Z,52.55
2019-02-15T07:50:05.670Z,55.23
2019-02-15T07:52:33.534Z,55.60
2019-02-15T07:55:00.057Z,58.63
2019-02-15T07:57:26.595Z,55.98
2019-02-15T07:59:53.154Z,56.53
2019-02-15T08:02:19.691Z,59.50
2019-02-15T08:04:46.651Z,57.93
2019-02-15T08:07:13.814Z,61.33
2019-02-15T08:09:40.344Z,56.10
2019-02-15T08:12:06.908Z,51.13
2019-02-15T08:14:33.461Z,48.33
2019-02-15T08:17:00.087Z,47.55
2019-02-15T08:19:26.650Z,47.30
2019-02-15T08:21:54.051Z,53.35
2019-02-15T08:24:20.573Z,47.88
2019-02-15T08:26:47.116Z,42.80
2019-02-15T08:29:13.705Z,42.43
2019-02-15T08:31:40.265Z,41.25
2019-02-15T08:34:06.817Z,39.80
2019-02-15T08:36:33.469Z,36.77
2019-02-15T08:38:59.989Z,41.95
2019-02-15T08:41:26.689Z,41.13
2019-02-15T08:43:53.228Z,39.98
2019-02-15T08:46:19.880Z,40.55
2019-02-15T08:48:46.664Z,43.50
2019-02-15T08:51:13.208Z,47.60
2019-02-15T08:53:39.754Z,50.30
2019-02-15T08:56:06.305Z,48.38
2019-02-15T08:58:32.854Z,49.33
2019-02-15T09:00:59.483Z,45.45
2019-02-15T09:03:26.436Z,45.35
2019-02-15T09:05:52.995Z,44.58
2019-02-15T09:08:19.527Z,44.20
2019-02-15T09:10:46.053Z,42.90
2019-02-15T09:13:12.629Z,43.50
2019-02-15T09:15:39.141Z,48.00
2019-02-15T09:18:05.677Z,44.33
2019-02-15T09:20:32.252Z,44.77
2019-02-15T09:22:58.845Z,44.05
2019-02-15T09:25:25.316Z,42.38
2019-02-15T09:28:02.836Z,45.48
2019-02-15T09:30:29.372Z,44.18
2019-02-15T09:32:55.922Z,42.27
2019-02-15T09:35:22.456Z,42.78
2019-02-15T09:37:49.115Z,41.33
2019-02-15T09:40:15.681Z,40.40
2019-02-15T09:42:42.334Z,39.90
2019-02-15T09:45:10.376Z,34.50
2019-02-15T09:47:37.013Z,34.63
2019-02-15T09:50:08.048Z,29.98
2019-02-15T09:52:35.657Z,33.15
2019-02-15T09:55:02.245Z,31.20
2019-02-15T09:57:28.825Z,30.32
2019-02-15T09:59:55.362Z,23.12
2019-02-15T10:02:21.926Z,22.95
2019-02-15T10:04:48.476Z,27.67
2019-02-15T10:07:15.049Z,26.50
2019-02-15T10:09:41.612Z,23.62
2019-02-15T10:12:08.179Z,22.07
2019-02-15T10:14:34.700Z,21.15
2019-02-15T10:17:01.262Z,21.82
2019-02-15T10:19:27.830Z,21.68
2019-02-15T10:21:54.365Z,18.37
2019-02-15T10:24:20.990Z,22.93
2019-02-15T10:26:47.554Z,24.05
2019-02-15T10:29:14.091Z,22.95
2019-02-15T10:31:40.646Z,22.80
2019-02-15T10:34:07.206Z,24.05
2019-02-15T10:36:33.774Z,22.98
2019-02-15T10:39:00.347Z,20.75
2019-02-15T10:41:26.912Z,20.48
2019-02-15T10:43:53.442Z,22.45
2019-02-15T10:46:19.996Z,18.30
2019-02-15T10:48:46.744Z,19.57
2019-02-15T10:51:13.403Z,24.63
2019-02-15T10:53:40.046Z,23.60
2019-02-15T10:56:06.640Z,25.05
2019-02-15T10:58:33.173Z,23.62
2019-02-15T11:00:59.736Z,23.25
2019-02-15T11:03:26.385Z,20.80
2019-02-15T11:05:53.023Z,19.90
2019-02-15T11:08:19.549Z,19.02
2019-02-15T11:10:46.102Z,19.32
2019-02-15T11:13:12.633Z,18.32
2019-02-15T11:15:39.190Z,17.98
2019-02-15T11:18:05.775Z,16.82
2019-02-15T11:20:32.474Z,15.08
2019-02-15T11:22:59.033Z,15.25
2019-02-15T11:25:26.798Z,15.35
2019-02-15T11:27:54.152Z,15.15
2019-02-15T11:30:20.779Z,13.70
2019-02-15T11:32:47.868Z,13.85
2019-02-15T11:35:14.435Z,14.25
2019-02-15T11:37:41.001Z,14.20
2019-02-15T11:40:13.241Z,13.38
2019-02-15T11:42:39.917Z,13.00
2019-02-15T11:45:11.463Z,13.38
2019-02-15T11:47:38.121Z,12.82
2019-02-15T11:50:10.086Z,11.90
2019-02-15T11:52:36.736Z,11.45
2019-02-15T11:55:06.705Z,11.50
2019-02-15T11:57:33.334Z,19.75
2019-02-15T11:59:59.905Z,11.15
2019-02-15T12:02:26.463Z,12.23
2019-02-15T12:04:53.022Z,11.40
2019-02-15T12:07:19.602Z,10.40
2019-02-15T12:09:46.167Z,10.70
2019-02-15T12:12:12.709Z,10.35
2019-02-15T12:14:39.290Z,9.35
2019-02-15T12:17:06.053Z,6.87
2019-02-15T12:19:33.814Z,5.67
2019-02-15T12:22:00.387Z,8.45
2019-02-15T12:24:26.937Z,5.85
2019-02-15T12:26:53.513Z,6.03
2019-02-15T12:29:20.059Z,5.80
2019-02-15T12:31:46.644Z,5.67
2019-02-15T12:34:13.207Z,6.10
2019-02-15T12:36:39.759Z,5.25
2019-02-15T12:39:06.409Z,5.40
2019-02-15T12:41:34.376Z,5.62
2019-02-15T12:44:01.086Z,5.70
2019-02-15T12:46:27.641Z,5.40
2019-02-15T12:48:54.184Z,5.70
2019-02-15T12:51:20.825Z,5.30
2019-02-15T12:53:47.373Z,5.70
2019-02-15T12:56:13.949Z,4.60
2019-02-15T12:58:40.517Z,5.22
2019-02-15T13:01:07.098Z,5.30
2019-02-15T13:03:33.699Z,5.17
2019-02-15T13:06:00.322Z,5.12
2019-02-15T13:08:26.889Z,4.85
2019-02-15T13:10:53.532Z,5.20
2019-02-15T13:13:20.225Z,5.75
2019-02-15T13:15:46.771Z,5.80
2019-02-15T13:18:13.336Z,5.85
2019-02-15T13:20:39.888Z,6.00
2019-02-15T13:23:06.459Z,5.83
2019-02-15T13:25:36.712Z,5.40
2019-02-15T13:28:02.577Z,6.05
2019-02-15T13:30:29.150Z,6.70
2019-02-15T13:32:55.684Z,6.60
2019-02-15T13:35:23.237Z,6.58
2019-02-15T13:37:49.793Z,6.50
2019-02-15T13:40:16.371Z,5.75
2019-02-15T13:42:42.951Z,6.00
2019-02-15T13:45:11.115Z,5.03
2019-02-15T13:47:37.751Z,6.00
2019-02-15T13:50:11.525Z,7.50
2019-02-15T13:52:38.225Z,6.90
2019-02-15T13:55:06.086Z,6.00
2019-02-15T13:57:32.746Z,5.70
2019-02-15T13:59:59.301Z,5.97
2019-02-15T14:02:25.905Z,5.92
2019-02-15T14:04:52.494Z,6.33
2019-02-15T14:07:19.066Z,5.58
2019-02-15T14:09:45.618Z,5.40
2019-02-15T14:12:12.211Z,5.42
2019-02-15T14:14:38.780Z,6.22
2019-02-15T14:17:05.356Z,5.75
2019-02-15T14:19:31.997Z,5.70
2019-02-15T14:21:58.561Z,5.95
2019-02-15T14:24:25.204Z,5.53
2019-02-15T14:26:52.064Z,5.62
2019-02-15T14:29:18.841Z,5.62
2019-02-15T14:31:45.399Z,5.33
2019-02-15T14:34:11.927Z,5.40
2019-02-15T14:36:38.465Z,5.97
2019-02-15T14:39:06.960Z,6.08
2019-02-15T14:41:33.875Z,6.35
2019-02-15T14:44:00.474Z,5.70
2019-02-15T14:46:28.291Z,5.78
2019-02-15T14:48:54.988Z,6.87
2019-02-15T14:51:21.536Z,6.25
2019-02-15T14:53:48.202Z,6.47
2019-02-15T14:56:14.760Z,5.97
2019-02-15T14:58:41.349Z,6.47
2019-02-15T15:01:07.922Z,6.15
2019-02-15T15:03:34.481Z,6.67
2019-02-15T15:06:01.015Z,6.87
2019-02-15T15:08:27.559Z,6.62
2019-02-15T15:10:54.125Z,6.35
2019-02-15T15:13:20.668Z,7.15
2019-02-15T15:15:47.228Z,7.03
2019-02-15T15:18:14.879Z,6.92
2019-02-15T15:20:41.411Z,8.70
2019-02-15T15:23:08.046Z,6.72
2019-02-15T15:25:34.614Z,7.33
2019-02-15T15:28:01.343Z,7.12
2019-02-15T15:30:28.276Z,7.25
2019-02-15T15:32:54.825Z,7.45
2019-02-15T15:35:21.362Z,7.83
2019-02-15T15:37:48.136Z,7.33
2019-02-15T15:40:15.956Z,6.67
2019-02-15T15:42:42.689Z,7.00
2019-02-15T15:45:10.579Z,7.25
2019-02-15T15:47:37.178Z,7.20
2019-02-15T15:50:05.225Z,6.65
2019-02-15T15:52:31.796Z,7.78
2019-02-15T15:54:58.359Z,7.50
2019-02-15T15:57:24.901Z,7.50
2019-02-15T15:59:51.499Z,7.08
2019-02-15T16:02:18.770Z,7.67
2019-02-15T16:04:50.523Z,7.47
2019-02-15T16:07:17.201Z,7.50
2019-02-15T16:09:43.745Z,8.10
2019-02-15T16:12:12.193Z,7.85
2019-02-15T16:14:38.787Z,7.62
2019-02-15T16:17:05.349Z,7.90
2019-02-15T16:19:40.606Z,7.85
2019-02-15T16:22:01.494Z,10.43
2019-02-15T16:24:28.157Z,9.00
2019-02-15T16:26:54.693Z,8.95
2019-02-15T16:29:21.285Z,30.77
2019-02-15T16:31:48.926Z,8.58
2019-02-15T16:34:21.523Z,7.58
2019-02-15T16:36:48.061Z,29.30
2019-02-15T16:39:14.621Z,8.25
2019-02-15T16:41:41.164Z,8.55
2019-02-15T16:44:10.229Z,20.52
2019-02-15T16:46:36.840Z,8.70
2019-02-15T16:49:03.396Z,9.58
2019-02-15T16:51:29.934Z,9.95
2019-02-15T16:53:56.505Z,8.75
2019-02-15T16:56:23.095Z,28.75
2019-02-15T16:58:49.614Z,29.90
2019-02-15T17:01:16.198Z,37.40
2019-02-15T17:03:42.744Z,20.55
2019-02-15T17:06:09.310Z,14.40
2019-02-15T17:08:35.876Z,15.72
2019-02-15T17:11:02.509Z,13.53
2019-02-15T17:13:29.024Z,13.85
2019-02-15T17:15:55.584Z,11.12
2019-02-15T17:18:22.273Z,11.25
2019-02-15T17:20:49.070Z,16.27
2019-02-15T17:23:15.607Z,13.78
2019-02-15T17:25:42.218Z,10.15
2019-02-15T17:28:10.861Z,8.93
2019-02-15T17:30:37.190Z,9.58
2019-02-15T17:33:03.792Z,9.80
2019-02-15T17:35:30.378Z,12.03
2019-02-15T17:37:56.957Z,9.38
2019-02-15T17:40:23.594Z,9.98
2019-02-15T17:42:50.186Z,9.93
2019-02-15T17:45:16.771Z,9.05
2019-02-15T17:47:43.452Z,9.73
2019-02-15T17:50:11.007Z,10.03
2019-02-15T17:52:37.662Z,14.05
2019-02-15T17:55:05.842Z,17.52
2019-02-15T17:57:32.428Z,29.12
2019-02-15T17:59:59.002Z,29.75
2019-02-15T18:02:26.725Z,33.88
2019-02-15T18:04:53.233Z,28.12
2019-02-15T18:07:19.820Z,33.45
2019-02-15T18:09:47.826Z,21.17
2019-02-15T18:12:14.516Z,25.70
2019-02-15T18:14:41.094Z,72.03
2019-02-15T18:17:07.674Z,58.80
2019-02-15T18:19:34.209Z,57.73
2019-02-15T18:22:02.817Z,35.20
2019-02-15T18:24:29.220Z,37.38
2019-02-15T18:26:55.827Z,29.65
2019-02-15T18:29:22.373Z,25.68
2019-02-15T18:31:48.911Z,27.50
2019-02-15T18:34:15.516Z,25.55
2019-02-15T18:36:42.066Z,24.30
2019-02-15T18:39:08.820Z,34.33
2019-02-15T18:41:35.699Z,33.08
2019-02-15T18:44:02.822Z,26.95
2019-02-15T18:49:19.446Z,27.15
2019-02-15T18:51:45.644Z,39.65
2019-02-15T18:54:12.220Z,37.75
2019-02-15T18:56:38.830Z,95.55
2019-02-15T18:59:05.372Z,92.55
2019-02-15T19:01:31.943Z,41.75
2019-02-15T19:03:58.522Z,38.90
2019-02-15T19:06:25.060Z,30.40
2019-02-15T19:08:51.630Z,26.40
2019-02-15T19:11:18.225Z,25.17
2019-02-15T19:13:44.791Z,24.20
2019-02-15T19:16:11.360Z,25.70
2019-02-15T19:18:37.953Z,25.80
2019-02-15T19:21:04.700Z,24.20
2019-02-15T19:23:31.330Z,21.80
2019-02-15T19:25:57.902Z,25.40
2019-02-15T19:28:24.552Z,28.80
2019-02-15T19:30:51.203Z,33.00
2019-02-15T19:33:17.766Z,27.45
2019-02-15T19:35:44.321Z,31.15
2019-02-15T19:38:10.857Z,33.18
2019-02-15T19:40:37.449Z,33.92
2019-02-15T19:43:07.796Z,31.95
2019-02-15T19:45:34.462Z,32.48
2019-02-15T19:48:01.019Z,32.95
2019-02-15T19:50:27.607Z,37.38
2019-02-15T19:52:54.197Z,31.50
2019-02-15T19:55:20.779Z,23.38
2019-02-15T19:57:48.729Z,23.45
2019-02-15T20:00:17.166Z,58.55
2019-02-15T20:02:43.845Z,35.95
2019-02-15T20:05:10.471Z,48.05
2019-02-15T20:07:38.940Z,24.30
2019-02-15T20:10:15.108Z,19.37
2019-02-15T20:12:42.063Z,21.68
2019-02-15T20:15:10.797Z,25.08
2019-02-15T20:17:37.489Z,32.83
2019-02-15T20:20:07.831Z,42.48
2019-02-15T20:22:35.493Z,64.25
2019-02-15T20:25:02.147Z,63.78
2019-02-15T20:27:28.803Z,46.55
2019-02-15T20:29:56.482Z,40.45
2019-02-15T20:32:23.148Z,21.25
2019-02-15T20:34:49.837Z,18.82
2019-02-15T20:37:16.518Z,16.37
2019-02-15T20:39:43.206Z,15.45
2019-02-15T20:42:09.738Z,13.15
2019-02-15T20:44:36.396Z,13.22
2019-02-15T20:47:03.001Z,18.27
2019-02-15T20:49:38.913Z,41.95
2019-02-15T20:52:11.923Z,41.80
2019-02-15T21:07:30.254Z,31.83
2019-02-15T21:40:23.500Z,49.05
2019-02-15T21:42:52.077Z,52.35
2019-02-15T21:45:20.384Z,22.75
2019-02-15T21:47:47.048Z,31.37
2019-02-15T21:50:23.455Z,22.27
2019-02-15T21:55:50.039Z,20.52
2019-02-15T21:58:16.758Z,22.58
2019-02-15T22:00:43.777Z,23.55
2019-02-15T22:03:12.847Z,28.32
2019-02-15T22:05:39.573Z,30.97
2019-02-15T22:08:06.160Z,30.85
2019-02-15T22:10:32.718Z,32.05
2019-02-15T22:12:59.343Z,38.95
2019-02-15T22:15:25.883Z,49.77
2019-02-15T22:17:52.471Z,67.03
2019-02-15T22:20:26.287Z,56.85
2019-02-15T22:22:47.417Z,57.03
2019-02-15T22:25:13.991Z,48.30
2019-02-15T22:27:40.706Z,39.08
2019-02-15T22:30:18.844Z,22.70
2019-02-15T22:32:45.439Z,19.50
2019-02-15T22:35:12.111Z,16.07
2019-02-15T22:37:38.700Z,16.75
2019-02-15T22:40:20.532Z,17.05
2019-02-15T22:42:47.095Z,15.40
2019-02-15T22:45:13.704Z,21.70
2019-02-15T22:47:40.375Z,25.60
2019-02-15T22:50:06.992Z,25.37
2019-02-15T22:52:33.591Z,27.13
2019-02-15T22:55:00.210Z,32.60
2019-02-15T22:57:26.727Z,38.25
2019-02-15T22:59:54.696Z,42.00
2019-02-15T23:02:21.668Z,43.63
2019-02-15T23:04:48.465Z,39.10
2019-02-15T23:07:15.207Z,40.03
2019-02-15T23:09:41.891Z,38.48
2019-02-15T23:12:08.447Z,41.23
2019-02-15T23:14:35.366Z,38.63
2019-02-15T23:17:07.004Z,40.17
2019-02-15T23:19:33.741Z,37.90
2019-02-15T23:22:00.409Z,35.78
2019-02-15T23:24:27.091Z,37.15
2019-02-15T23:26:53.638Z,37.93
2019-02-15T23:29:20.226Z,35.80
2019-02-15T23:31:47.047Z,37.50
2019-02-15T23:34:13.771Z,34.80
2019-02-15T23:36:40.359Z,29.30
2019-02-15T23:39:06.972Z,25.60
2019-02-15T23:41:35.423Z,22.70
2019-02-15T23:44:01.992Z,30.15
2019-02-15T23:46:28.696Z,28.55
2019-02-15T23:48:55.306Z,25.62
2019-02-15T23:51:21.901Z,23.40
2019-02-15T23:53:48.487Z,23.35
2019-02-15T23:56:15.034Z,25.57
2019-02-15T23:58:41.607Z,24.87
